sensor_id;sensor_type;location;lat;lon;timestamp;temperature;humidity
10459;DHT22;5277;48.722;8.736;2024-02-21T00:00:45;5.60;99.90
10459;DHT22;5277;48.722;8.736;2024-02-21T00:03:11;5.70;99.90
10459;DHT22;5277;48.722;8.736;2024-02-21T00:05:37;5.60;99.90
10459;DHT22;5277;48.722;8.736;2024-02-21T00:08:03;5.60;99.90
10459;DHT22;5277;48.722;8.736;2024-02-21T00:10:28;5.70;99.90
10459;DHT22;5277;48.722;8.736;2024-02-21T00:12:54;5.70;99.90
10459;DHT22;5277;48.722;8.736;2024-02-21T00:15:20;5.80;99.90
10459;DHT22;5277;48.722;8.736;2024-02-21T00:17:46;5.70;99.90
10459;DHT22;5277;48.722;8.736;2024-02-21T00:20:12;5.70;99.90
10459;DHT22;5277;48.722;8.736;2024-02-21T00:22:38;5.80;99.90
10459;DHT22;5277;48.722;8.736;2024-02-21T00:25:04;5.70;99.90
10459;DHT22;5277;48.722;8.736;2024-02-21T00:27:30;5.70;99.90
10459;DHT22;5277;48.722;8.736;2024-02-21T00:29:56;5.70;99.90
10459;DHT22;5277;48.722;8.736;2024-02-21T00:32:22;5.80;99.90
10459;DHT22;5277;48.722;8.736;2024-02-21T00:34:47;5.80;99.90
10459;DHT22;5277;48.722;8.736;2024-02-21T00:37:13;5.80;99.90
10459;DHT22;5277;48.722;8.736;2024-02-21T00:39:38;5.80;99.90
10459;DHT22;5277;48.722;8.736;2024-02-21T00:42:04;5.80;99.90
10459;DHT22;5277;48.722;8.736;2024-02-21T00:44:30;5.80;99.90
10459;DHT22;5277;48.722;8.736;2024-02-21T00:46:55;5.80;99.90
10459;DHT22;5277;48.722;8.736;2024-02-21T00:49:21;5.90;99.90
10459;DHT22;5277;48.722;8.736;2024-02-21T00:51:47;5.90;99.90
10459;DHT22;5277;48.722;8.736;2024-02-21T00:54:12;5.90;99.90
10459;DHT22;5277;48.722;8.736;2024-02-21T00:56:38;5.90;99.90
10459;DHT22;5277;48.722;8.736;2024-02-21T00:59:04;5.90;99.90
10459;DHT22;5277;48.722;8.736;2024-02-21T01:01:29;5.90;99.90
10459;DHT22;5277;48.722;8.736;2024-02-21T01:03:55;5.90;99.90
10459;DHT22;5277;48.722;8.736;2024-02-21T01:06:20;5.90;99.90
10459;DHT22;5277;48.722;8.736;2024-02-21T01:08:47;5.90;99.90
10459;DHT22;5277;48.722;8.736;2024-02-21T01:11:16;5.80;99.90
10459;DHT22;5277;48.722;8.736;2024-02-21T01:13:42;5.70;99.90
10459;DHT22;5277;48.722;8.736;2024-02-21T01:16:07;5.80;99.90
10459;DHT22;5277;48.722;8.736;2024-02-21T01:18:39;5.80;99.90
10459;DHT22;5277;48.722;8.736;2024-02-21T01:21:06;5.80;99.90
10459;DHT22;5277;48.722;8.736;2024-02-21T01:23:35;5.90;99.90
10459;DHT22;5277;48.722;8.736;2024-02-21T01:26:02;5.80;99.90
10459;DHT22;5277;48.722;8.736;2024-02-21T01:28:27;5.80;99.90
10459;DHT22;5277;48.722;8.736;2024-02-21T01:30:53;5.80;99.90
10459;DHT22;5277;48.722;8.736;2024-02-21T01:33:19;5.90;99.90
10459;DHT22;5277;48.722;8.736;2024-02-21T01:35:44;5.80;99.90
10459;DHT22;5277;48.722;8.736;2024-02-21T01:38:12;5.90;99.90
10459;DHT22;5277;48.722;8.736;2024-02-21T01:40:37;5.90;99.90
10459;DHT22;5277;48.722;8.736;2024-02-21T01:43:03;5.90;99.90
10459;DHT22;5277;48.722;8.736;2024-02-21T01:45:29;5.90;99.90
10459;DHT22;5277;48.722;8.736;2024-02-21T01:47:55;5.90;99.90
10459;DHT22;5277;48.722;8.736;2024-02-21T01:50:22;6.00;99.90
10459;DHT22;5277;48.722;8.736;2024-02-21T01:52:49;6.00;99.90
10459;DHT22;5277;48.722;8.736;2024-02-21T01:55:16;6.00;99.90
10459;DHT22;5277;48.722;8.736;2024-02-21T01:57:43;5.90;99.90
10459;DHT22;5277;48.722;8.736;2024-02-21T02:00:12;5.90;99.90
10459;DHT22;5277;48.722;8.736;2024-02-21T02:02:38;6.00;99.90
10459;DHT22;5277;48.722;8.736;2024-02-21T02:05:04;6.00;99.90
10459;DHT22;5277;48.722;8.736;2024-02-21T02:07:31;6.00;99.90
10459;DHT22;5277;48.722;8.736;2024-02-21T02:09:57;6.00;99.90
10459;DHT22;5277;48.722;8.736;2024-02-21T02:12:23;6.00;99.90
10459;DHT22;5277;48.722;8.736;2024-02-21T02:15:09;6.10;99.90
10459;DHT22;5277;48.722;8.736;2024-02-21T02:17:35;6.10;99.90
10459;DHT22;5277;48.722;8.736;2024-02-21T02:20:01;6.10;99.90
10459;DHT22;5277;48.722;8.736;2024-02-21T02:22:28;6.20;99.90
10459;DHT22;5277;48.722;8.736;2024-02-21T02:24:54;6.20;99.90
10459;DHT22;5277;48.722;8.736;2024-02-21T02:27:20;6.10;99.90
10459;DHT22;5277;48.722;8.736;2024-02-21T02:29:48;6.20;99.90
10459;DHT22;5277;48.722;8.736;2024-02-21T02:32:14;6.10;99.90
10459;DHT22;5277;48.722;8.736;2024-02-21T02:34:39;6.20;99.90
10459;DHT22;5277;48.722;8.736;2024-02-21T02:37:07;6.20;99.90
10459;DHT22;5277;48.722;8.736;2024-02-21T02:39:36;6.20;99.90
10459;DHT22;5277;48.722;8.736;2024-02-21T02:42:02;6.20;99.90
10459;DHT22;5277;48.722;8.736;2024-02-21T02:44:33;6.30;99.90
10459;DHT22;5277;48.722;8.736;2024-02-21T02:46:59;6.30;99.90
10459;DHT22;5277;48.722;8.736;2024-02-21T02:49:27;6.30;99.90
10459;DHT22;5277;48.722;8.736;2024-02-21T02:51:55;6.30;99.90
10459;DHT22;5277;48.722;8.736;2024-02-21T02:54:32;6.30;99.90
10459;DHT22;5277;48.722;8.736;2024-02-21T02:57:05;6.30;99.90
10459;DHT22;5277;48.722;8.736;2024-02-21T02:59:31;6.30;99.90
10459;DHT22;5277;48.722;8.736;2024-02-21T03:01:58;6.30;99.90
10459;DHT22;5277;48.722;8.736;2024-02-21T03:04:23;6.30;99.90
10459;DHT22;5277;48.722;8.736;2024-02-21T03:06:49;6.30;99.90
10459;DHT22;5277;48.722;8.736;2024-02-21T03:09:14;6.30;99.90
10459;DHT22;5277;48.722;8.736;2024-02-21T03:11:41;6.40;99.90
10459;DHT22;5277;48.722;8.736;2024-02-21T03:14:08;6.30;99.90
10459;DHT22;5277;48.722;8.736;2024-02-21T03:16:34;6.30;99.90
10459;DHT22;5277;48.722;8.736;2024-02-21T03:19:00;6.30;99.90
10459;DHT22;5277;48.722;8.736;2024-02-21T03:21:25;6.30;99.90
10459;DHT22;5277;48.722;8.736;2024-02-21T03:23:51;6.30;99.90
10459;DHT22;5277;48.722;8.736;2024-02-21T03:26:16;6.20;99.90
10459;DHT22;5277;48.722;8.736;2024-02-21T03:28:43;6.30;99.90
10459;DHT22;5277;48.722;8.736;2024-02-21T03:31:11;6.30;99.90
10459;DHT22;5277;48.722;8.736;2024-02-21T03:33:39;6.30;99.90
10459;DHT22;5277;48.722;8.736;2024-02-21T03:36:08;6.20;99.90
10459;DHT22;5277;48.722;8.736;2024-02-21T03:38:38;6.20;99.90
10459;DHT22;5277;48.722;8.736;2024-02-21T03:41:03;6.20;99.90
10459;DHT22;5277;48.722;8.736;2024-02-21T03:43:29;6.10;99.90
10459;DHT22;5277;48.722;8.736;2024-02-21T03:45:54;6.10;99.90
10459;DHT22;5277;48.722;8.736;2024-02-21T03:48:20;6.00;99.90
10459;DHT22;5277;48.722;8.736;2024-02-21T03:50:46;6.00;99.90
10459;DHT22;5277;48.722;8.736;2024-02-21T03:53:11;6.10;99.90
10459;DHT22;5277;48.722;8.736;2024-02-21T03:55:37;6.00;99.90
10459;DHT22;5277;48.722;8.736;2024-02-21T03:58:03;5.90;99.90
10459;DHT22;5277;48.722;8.736;2024-02-21T04:00:29;5.90;99.90
10459;DHT22;5277;48.722;8.736;2024-02-21T04:02:54;5.80;99.90
10459;DHT22;5277;48.722;8.736;2024-02-21T04:05:24;5.80;99.90
10459;DHT22;5277;48.722;8.736;2024-02-21T04:07:53;5.70;99.90
10459;DHT22;5277;48.722;8.736;2024-02-21T04:10:20;5.80;99.90
10459;DHT22;5277;48.722;8.736;2024-02-21T04:12:46;5.70;99.90
10459;DHT22;5277;48.722;8.736;2024-02-21T04:15:11;5.60;99.90
10459;DHT22;5277;48.722;8.736;2024-02-21T04:17:37;5.50;99.90
10459;DHT22;5277;48.722;8.736;2024-02-21T04:20:04;5.50;99.90
10459;DHT22;5277;48.722;8.736;2024-02-21T04:22:36;5.50;99.90
10459;DHT22;5277;48.722;8.736;2024-02-21T04:25:02;5.50;99.90
10459;DHT22;5277;48.722;8.736;2024-02-21T04:27:27;5.50;99.90
10459;DHT22;5277;48.722;8.736;2024-02-21T04:29:53;5.50;99.90
10459;DHT22;5277;48.722;8.736;2024-02-21T04:32:24;5.60;99.90
10459;DHT22;5277;48.722;8.736;2024-02-21T04:34:52;5.50;99.90
10459;DHT22;5277;48.722;8.736;2024-02-21T04:37:18;5.50;99.90
10459;DHT22;5277;48.722;8.736;2024-02-21T04:39:44;5.50;99.90
10459;DHT22;5277;48.722;8.736;2024-02-21T04:42:10;5.50;99.90
10459;DHT22;5277;48.722;8.736;2024-02-21T04:44:36;5.40;99.90
10459;DHT22;5277;48.722;8.736;2024-02-21T04:47:02;5.50;99.90
10459;DHT22;5277;48.722;8.736;2024-02-21T04:49:29;5.50;99.90
10459;DHT22;5277;48.722;8.736;2024-02-21T04:51:55;5.40;99.90
10459;DHT22;5277;48.722;8.736;2024-02-21T04:54:20;5.40;99.90
10459;DHT22;5277;48.722;8.736;2024-02-21T04:56:46;5.40;99.90
10459;DHT22;5277;48.722;8.736;2024-02-21T04:59:11;5.30;99.90
10459;DHT22;5277;48.722;8.736;2024-02-21T05:01:39;5.30;99.90
10459;DHT22;5277;48.722;8.736;2024-02-21T05:04:07;5.30;99.90
10459;DHT22;5277;48.722;8.736;2024-02-21T05:06:44;5.30;99.90
10459;DHT22;5277;48.722;8.736;2024-02-21T05:09:10;5.20;99.90
10459;DHT22;5277;48.722;8.736;2024-02-21T05:11:36;5.10;99.90
10459;DHT22;5277;48.722;8.736;2024-02-21T05:14:06;5.10;99.90
10459;DHT22;5277;48.722;8.736;2024-02-21T05:16:32;5.00;99.90
10459;DHT22;5277;48.722;8.736;2024-02-21T05:18:58;5.10;99.90
10459;DHT22;5277;48.722;8.736;2024-02-21T05:21:24;5.00;99.90
10459;DHT22;5277;48.722;8.736;2024-02-21T05:23:50;5.00;99.90
10459;DHT22;5277;48.722;8.736;2024-02-21T05:26:24;4.90;99.90
10459;DHT22;5277;48.722;8.736;2024-02-21T05:28:50;4.90;99.90
10459;DHT22;5277;48.722;8.736;2024-02-21T05:31:19;5.00;99.90
10459;DHT22;5277;48.722;8.736;2024-02-21T05:33:54;4.90;99.90
10459;DHT22;5277;48.722;8.736;2024-02-21T05:36:23;4.90;99.90
10459;DHT22;5277;48.722;8.736;2024-02-21T05:38:48;4.90;99.90
10459;DHT22;5277;48.722;8.736;2024-02-21T05:41:14;4.90;99.90
10459;DHT22;5277;48.722;8.736;2024-02-21T05:43:40;4.80;99.90
10459;DHT22;5277;48.722;8.736;2024-02-21T05:46:06;4.90;99.90
10459;DHT22;5277;48.722;8.736;2024-02-21T05:48:34;4.90;99.90
10459;DHT22;5277;48.722;8.736;2024-02-21T05:51:01;4.90;99.90
10459;DHT22;5277;48.722;8.736;2024-02-21T05:53:27;4.90;99.90
10459;DHT22;5277;48.722;8.736;2024-02-21T05:55:53;4.90;99.90
10459;DHT22;5277;48.722;8.736;2024-02-21T05:58:19;4.80;99.90
10459;DHT22;5277;48.722;8.736;2024-02-21T06:00:44;4.70;99.90
10459;DHT22;5277;48.722;8.736;2024-02-21T06:03:10;4.80;99.90
10459;DHT22;5277;48.722;8.736;2024-02-21T06:05:38;4.80;99.90
10459;DHT22;5277;48.722;8.736;2024-02-21T06:08:05;4.70;99.90
10459;DHT22;5277;48.722;8.736;2024-02-21T06:10:30;4.60;99.90
10459;DHT22;5277;48.722;8.736;2024-02-21T06:12:56;4.60;99.90
10459;DHT22;5277;48.722;8.736;2024-02-21T06:15:22;4.50;99.90
10459;DHT22;5277;48.722;8.736;2024-02-21T06:17:47;4.50;99.90
10459;DHT22;5277;48.722;8.736;2024-02-21T06:20:13;4.40;99.90
10459;DHT22;5277;48.722;8.736;2024-02-21T06:22:38;4.40;99.90
10459;DHT22;5277;48.722;8.736;2024-02-21T06:25:04;4.50;99.90
10459;DHT22;5277;48.722;8.736;2024-02-21T06:27:30;4.40;99.90
10459;DHT22;5277;48.722;8.736;2024-02-21T06:29:56;4.40;99.90
10459;DHT22;5277;48.722;8.736;2024-02-21T06:32:21;4.40;99.90
10459;DHT22;5277;48.722;8.736;2024-02-21T06:34:47;4.30;99.90
10459;DHT22;5277;48.722;8.736;2024-02-21T06:37:13;4.40;99.90
10459;DHT22;5277;48.722;8.736;2024-02-21T06:39:38;4.30;99.90
10459;DHT22;5277;48.722;8.736;2024-02-21T06:42:06;4.20;99.90
10459;DHT22;5277;48.722;8.736;2024-02-21T06:44:31;4.20;99.90
10459;DHT22;5277;48.722;8.736;2024-02-21T06:47:01;4.30;99.90
10459;DHT22;5277;48.722;8.736;2024-02-21T06:49:27;4.20;99.90
10459;DHT22;5277;48.722;8.736;2024-02-21T06:51:53;4.30;99.90
10459;DHT22;5277;48.722;8.736;2024-02-21T06:54:18;4.30;99.90
10459;DHT22;5277;48.722;8.736;2024-02-21T06:56:44;4.20;99.90
10459;DHT22;5277;48.722;8.736;2024-02-21T06:59:09;4.30;99.90
10459;DHT22;5277;48.722;8.736;2024-02-21T07:01:35;4.30;99.90
10459;DHT22;5277;48.722;8.736;2024-02-21T07:04:01;4.40;99.90
10459;DHT22;5277;48.722;8.736;2024-02-21T07:06:27;4.40;99.90
10459;DHT22;5277;48.722;8.736;2024-02-21T07:08:52;4.50;99.90
10459;DHT22;5277;48.722;8.736;2024-02-21T07:11:18;4.50;99.90
10459;DHT22;5277;48.722;8.736;2024-02-21T07:13:46;4.60;99.90
10459;DHT22;5277;48.722;8.736;2024-02-21T07:16:14;4.70;99.90
10459;DHT22;5277;48.722;8.736;2024-02-21T07:18:40;4.70;99.90
10459;DHT22;5277;48.722;8.736;2024-02-21T07:21:05;4.70;99.90
10459;DHT22;5277;48.722;8.736;2024-02-21T07:23:31;4.80;99.90
10459;DHT22;5277;48.722;8.736;2024-02-21T07:25:56;4.80;99.90
10459;DHT22;5277;48.722;8.736;2024-02-21T07:28:22;4.80;99.90
10459;DHT22;5277;48.722;8.736;2024-02-21T07:30:48;4.90;99.90
10459;DHT22;5277;48.722;8.736;2024-02-21T07:33:13;4.90;99.90
10459;DHT22;5277;48.722;8.736;2024-02-21T07:35:39;5.00;99.90
10459;DHT22;5277;48.722;8.736;2024-02-21T07:38:07;5.10;99.90
10459;DHT22;5277;48.722;8.736;2024-02-21T07:40:37;5.10;99.90
10459;DHT22;5277;48.722;8.736;2024-02-21T07:43:03;5.20;99.90
10459;DHT22;5277;48.722;8.736;2024-02-21T07:45:29;5.30;99.90
10459;DHT22;5277;48.722;8.736;2024-02-21T07:47:54;5.40;99.90
10459;DHT22;5277;48.722;8.736;2024-02-21T07:50:20;5.50;99.90
10459;DHT22;5277;48.722;8.736;2024-02-21T07:52:45;5.60;99.90
10459;DHT22;5277;48.722;8.736;2024-02-21T07:55:11;5.70;99.90
10459;DHT22;5277;48.722;8.736;2024-02-21T07:57:37;5.80;99.90
10459;DHT22;5277;48.722;8.736;2024-02-21T08:00:03;5.90;99.90
10459;DHT22;5277;48.722;8.736;2024-02-21T08:02:35;6.00;99.90
10459;DHT22;5277;48.722;8.736;2024-02-21T08:05:00;6.10;99.90
10459;DHT22;5277;48.722;8.736;2024-02-21T08:07:26;6.10;99.90
10459;DHT22;5277;48.722;8.736;2024-02-21T08:09:54;6.20;99.90
10459;DHT22;5277;48.722;8.736;2024-02-21T08:12:19;6.40;99.90
10459;DHT22;5277;48.722;8.736;2024-02-21T08:14:45;6.60;99.90
10459;DHT22;5277;48.722;8.736;2024-02-21T08:17:11;6.70;99.90
10459;DHT22;5277;48.722;8.736;2024-02-21T08:19:36;6.70;99.90
10459;DHT22;5277;48.722;8.736;2024-02-21T08:22:02;6.80;99.90
10459;DHT22;5277;48.722;8.736;2024-02-21T08:24:28;6.90;99.90
10459;DHT22;5277;48.722;8.736;2024-02-21T08:26:54;7.00;99.90
10459;DHT22;5277;48.722;8.736;2024-02-21T08:29:20;7.10;99.90
10459;DHT22;5277;48.722;8.736;2024-02-21T08:31:45;7.30;99.90
10459;DHT22;5277;48.722;8.736;2024-02-21T08:34:11;7.30;99.90
10459;DHT22;5277;48.722;8.736;2024-02-21T08:36:38;7.40;99.90
10459;DHT22;5277;48.722;8.736;2024-02-21T08:39:04;7.50;99.90
10459;DHT22;5277;48.722;8.736;2024-02-21T08:41:34;7.60;99.90
10459;DHT22;5277;48.722;8.736;2024-02-21T08:44:00;7.60;99.90
10459;DHT22;5277;48.722;8.736;2024-02-21T08:46:26;7.60;99.90
10459;DHT22;5277;48.722;8.736;2024-02-21T08:48:52;7.70;99.90
10459;DHT22;5277;48.722;8.736;2024-02-21T08:51:18;7.80;99.90
10459;DHT22;5277;48.722;8.736;2024-02-21T08:53:47;7.80;99.90
10459;DHT22;5277;48.722;8.736;2024-02-21T08:56:13;7.90;99.90
10459;DHT22;5277;48.722;8.736;2024-02-21T08:58:40;8.00;99.90
10459;DHT22;5277;48.722;8.736;2024-02-21T09:01:08;7.90;99.90
10459;DHT22;5277;48.722;8.736;2024-02-21T09:03:37;8.00;99.90
10459;DHT22;5277;48.722;8.736;2024-02-21T09:06:04;8.20;99.90
10459;DHT22;5277;48.722;8.736;2024-02-21T09:08:30;8.20;99.90
10459;DHT22;5277;48.722;8.736;2024-02-21T09:10:56;8.30;99.90
10459;DHT22;5277;48.722;8.736;2024-02-21T09:13:21;8.40;99.90
10459;DHT22;5277;48.722;8.736;2024-02-21T09:15:48;8.40;99.90
10459;DHT22;5277;48.722;8.736;2024-02-21T09:18:14;8.60;99.90
10459;DHT22;5277;48.722;8.736;2024-02-21T09:20:40;8.60;99.90
10459;DHT22;5277;48.722;8.736;2024-02-21T09:23:05;8.70;99.90
10459;DHT22;5277;48.722;8.736;2024-02-21T09:25:31;8.80;99.90
10459;DHT22;5277;48.722;8.736;2024-02-21T09:27:57;8.80;99.90
10459;DHT22;5277;48.722;8.736;2024-02-21T09:30:24;8.90;99.90
10459;DHT22;5277;48.722;8.736;2024-02-21T09:32:50;8.90;99.90
10459;DHT22;5277;48.722;8.736;2024-02-21T09:35:15;9.00;99.90
10459;DHT22;5277;48.722;8.736;2024-02-21T09:37:41;9.10;99.90
10459;DHT22;5277;48.722;8.736;2024-02-21T09:40:07;9.20;99.90
10459;DHT22;5277;48.722;8.736;2024-02-21T09:42:41;9.20;99.90
10459;DHT22;5277;48.722;8.736;2024-02-21T09:55:13;9.60;99.90
10459;DHT22;5277;48.722;8.736;2024-02-21T09:57:40;9.70;99.90
10459;DHT22;5277;48.722;8.736;2024-02-21T10:00:06;9.80;99.90
10459;DHT22;5277;48.722;8.736;2024-02-21T10:02:34;10.00;99.70
10459;DHT22;5277;48.722;8.736;2024-02-21T10:04:59;10.00;99.40
10459;DHT22;5277;48.722;8.736;2024-02-21T10:07:25;10.20;99.30
10459;DHT22;5277;48.722;8.736;2024-02-21T10:10:01;10.20;99.10
10459;DHT22;5277;48.722;8.736;2024-02-21T10:12:26;10.30;99.10
10459;DHT22;5277;48.722;8.736;2024-02-21T10:15:02;10.50;98.80
10459;DHT22;5277;48.722;8.736;2024-02-21T10:17:28;10.60;99.00
10459;DHT22;5277;48.722;8.736;2024-02-21T10:19:54;10.70;98.90
10459;DHT22;5277;48.722;8.736;2024-02-21T10:22:19;10.80;98.70
10459;DHT22;5277;48.722;8.736;2024-02-21T10:24:48;10.90;98.00
10459;DHT22;5277;48.722;8.736;2024-02-21T10:27:14;10.90;98.10
10459;DHT22;5277;48.722;8.736;2024-02-21T10:29:40;11.00;98.00
10459;DHT22;5277;48.722;8.736;2024-02-21T10:32:07;11.20;98.10
10459;DHT22;5277;48.722;8.736;2024-02-21T10:34:33;11.20;97.30
10459;DHT22;5277;48.722;8.736;2024-02-21T10:37:03;11.30;97.40
10459;DHT22;5277;48.722;8.736;2024-02-21T10:39:34;11.50;97.20
10459;DHT22;5277;48.722;8.736;2024-02-21T10:42:01;11.60;96.80
10459;DHT22;5277;48.722;8.736;2024-02-21T10:44:36;11.70;97.10
10459;DHT22;5277;48.722;8.736;2024-02-21T10:47:10;11.80;96.70
10459;DHT22;5277;48.722;8.736;2024-02-21T10:49:40;11.90;96.30
10459;DHT22;5277;48.722;8.736;2024-02-21T10:52:17;12.00;96.10
10459;DHT22;5277;48.722;8.736;2024-02-21T10:54:56;12.00;95.90
10459;DHT22;5277;48.722;8.736;2024-02-21T10:57:25;12.00;96.20
10459;DHT22;5277;48.722;8.736;2024-02-21T10:59:53;12.10;95.80
10459;DHT22;5277;48.722;8.736;2024-02-21T11:02:20;12.20;95.70
10459;DHT22;5277;48.722;8.736;2024-02-21T11:04:46;12.30;95.80
10459;DHT22;5277;48.722;8.736;2024-02-21T11:07:14;12.30;95.50
10459;DHT22;5277;48.722;8.736;2024-02-21T11:09:50;12.40;95.40
10459;DHT22;5277;48.722;8.736;2024-02-21T11:12:22;12.40;95.40
10459;DHT22;5277;48.722;8.736;2024-02-21T11:14:48;12.60;95.40
10459;DHT22;5277;48.722;8.736;2024-02-21T11:17:18;12.60;95.10
10459;DHT22;5277;48.722;8.736;2024-02-21T11:19:44;12.70;94.90
10459;DHT22;5277;48.722;8.736;2024-02-21T11:22:17;12.80;94.60
10459;DHT22;5277;48.722;8.736;2024-02-21T11:24:43;12.80;94.90
10459;DHT22;5277;48.722;8.736;2024-02-21T11:29:48;12.90;94.10
10459;DHT22;5277;48.722;8.736;2024-02-21T11:32:17;12.90;93.80
10459;DHT22;5277;48.722;8.736;2024-02-21T11:35:19;13.00;94.10
10459;DHT22;5277;48.722;8.736;2024-02-21T11:37:45;13.00;93.60
10459;DHT22;5277;48.722;8.736;2024-02-21T11:40:12;13.10;93.50
10459;DHT22;5277;48.722;8.736;2024-02-21T11:42:38;13.20;93.30
10459;DHT22;5277;48.722;8.736;2024-02-21T11:45:04;13.30;93.20
10459;DHT22;5277;48.722;8.736;2024-02-21T11:47:30;13.30;92.90
10459;DHT22;5277;48.722;8.736;2024-02-21T11:49:55;13.40;93.20
10459;DHT22;5277;48.722;8.736;2024-02-21T11:52:25;13.50;92.60
10459;DHT22;5277;48.722;8.736;2024-02-21T11:54:51;13.60;92.50
10459;DHT22;5277;48.722;8.736;2024-02-21T11:57:23;13.70;91.80
10459;DHT22;5277;48.722;8.736;2024-02-21T11:59:48;13.70;91.50
10459;DHT22;5277;48.722;8.736;2024-02-21T12:02:15;13.80;92.00
10459;DHT22;5277;48.722;8.736;2024-02-21T12:04:42;13.80;91.60
10459;DHT22;5277;48.722;8.736;2024-02-21T12:07:08;13.90;91.20
10459;DHT22;5277;48.722;8.736;2024-02-21T12:09:34;13.90;90.70
10459;DHT22;5277;48.722;8.736;2024-02-21T12:12:04;13.90;90.40
10459;DHT22;5277;48.722;8.736;2024-02-21T12:14:32;14.00;89.00
10459;DHT22;5277;48.722;8.736;2024-02-21T12:16:59;14.00;89.10
10459;DHT22;5277;48.722;8.736;2024-02-21T12:19:25;14.10;88.10
10459;DHT22;5277;48.722;8.736;2024-02-21T12:21:51;14.20;87.50
10459;DHT22;5277;48.722;8.736;2024-02-21T12:24:21;14.10;86.00
10459;DHT22;5277;48.722;8.736;2024-02-21T12:26:47;14.00;84.30
10459;DHT22;5277;48.722;8.736;2024-02-21T12:29:13;14.10;82.90
10459;DHT22;5277;48.722;8.736;2024-02-21T12:31:39;14.10;82.30
10459;DHT22;5277;48.722;8.736;2024-02-21T12:34:05;14.20;83.00
10459;DHT22;5277;48.722;8.736;2024-02-21T12:36:40;14.20;79.20
10459;DHT22;5277;48.722;8.736;2024-02-21T12:39:24;14.20;80.00
10459;DHT22;5277;48.722;8.736;2024-02-21T12:41:53;14.30;79.80
10459;DHT22;5277;48.722;8.736;2024-02-21T12:44:19;14.30;76.80
10459;DHT22;5277;48.722;8.736;2024-02-21T12:46:45;14.30;77.90
10459;DHT22;5277;48.722;8.736;2024-02-21T12:49:10;14.20;76.00
10459;DHT22;5277;48.722;8.736;2024-02-21T12:51:36;14.20;75.70
10459;DHT22;5277;48.722;8.736;2024-02-21T12:54:03;14.20;77.10
10459;DHT22;5277;48.722;8.736;2024-02-21T12:56:29;14.20;78.40
10459;DHT22;5277;48.722;8.736;2024-02-21T12:58:56;14.30;79.80
10459;DHT22;5277;48.722;8.736;2024-02-21T13:01:22;14.30;76.80
10459;DHT22;5277;48.722;8.736;2024-02-21T13:03:48;14.40;78.80
10459;DHT22;5277;48.722;8.736;2024-02-21T13:06:13;14.40;80.00
10459;DHT22;5277;48.722;8.736;2024-02-21T13:08:39;14.40;77.60
10459;DHT22;5277;48.722;8.736;2024-02-21T13:11:06;14.50;77.00
10459;DHT22;5277;48.722;8.736;2024-02-21T13:13:32;14.50;77.10
10459;DHT22;5277;48.722;8.736;2024-02-21T13:15:58;14.60;77.10
10459;DHT22;5277;48.722;8.736;2024-02-21T13:18:24;14.50;77.60
10459;DHT22;5277;48.722;8.736;2024-02-21T13:20:50;14.50;75.80
10459;DHT22;5277;48.722;8.736;2024-02-21T13:23:15;14.50;75.50
10459;DHT22;5277;48.722;8.736;2024-02-21T13:25:41;14.40;76.10
10459;DHT22;5277;48.722;8.736;2024-02-21T13:28:07;14.50;76.80
10459;DHT22;5277;48.722;8.736;2024-02-21T13:30:32;14.50;78.40
10459;DHT22;5277;48.722;8.736;2024-02-21T13:32:58;14.50;76.70
10459;DHT22;5277;48.722;8.736;2024-02-21T13:35:24;14.40;74.30
10459;DHT22;5277;48.722;8.736;2024-02-21T13:37:49;14.40;76.30
10459;DHT22;5277;48.722;8.736;2024-02-21T13:40:15;14.40;75.40
10459;DHT22;5277;48.722;8.736;2024-02-21T13:42:41;14.40;74.80
10459;DHT22;5277;48.722;8.736;2024-02-21T13:45:08;14.40;75.20
10459;DHT22;5277;48.722;8.736;2024-02-21T13:47:34;14.50;77.50
10459;DHT22;5277;48.722;8.736;2024-02-21T13:50:05;14.50;75.30
10459;DHT22;5277;48.722;8.736;2024-02-21T13:52:34;14.40;73.90
10459;DHT22;5277;48.722;8.736;2024-02-21T13:55:00;14.40;73.90
10459;DHT22;5277;48.722;8.736;2024-02-21T13:57:25;14.30;73.90
10459;DHT22;5277;48.722;8.736;2024-02-21T13:59:51;14.40;74.30
10459;DHT22;5277;48.722;8.736;2024-02-21T14:02:18;14.30;74.00
10459;DHT22;5277;48.722;8.736;2024-02-21T14:04:43;14.30;73.00
10459;DHT22;5277;48.722;8.736;2024-02-21T14:07:09;14.20;74.30
10459;DHT22;5277;48.722;8.736;2024-02-21T14:09:35;14.20;74.50
10459;DHT22;5277;48.722;8.736;2024-02-21T14:12:00;14.20;71.70
10459;DHT22;5277;48.722;8.736;2024-02-21T14:14:26;14.20;76.00
10459;DHT22;5277;48.722;8.736;2024-02-21T14:16:54;14.10;74.10
10459;DHT22;5277;48.722;8.736;2024-02-21T14:19:21;14.10;72.60
10459;DHT22;5277;48.722;8.736;2024-02-21T14:21:47;14.00;70.00
10459;DHT22;5277;48.722;8.736;2024-02-21T14:24:12;14.10;70.40
10459;DHT22;5277;48.722;8.736;2024-02-21T14:26:38;14.10;72.20
10459;DHT22;5277;48.722;8.736;2024-02-21T14:29:06;13.90;74.50
10459;DHT22;5277;48.722;8.736;2024-02-21T14:31:32;14.00;71.90
10459;DHT22;5277;48.722;8.736;2024-02-21T14:33:58;13.90;76.40
10459;DHT22;5277;48.722;8.736;2024-02-21T14:36:23;13.90;77.90
10459;DHT22;5277;48.722;8.736;2024-02-21T14:38:52;13.90;77.40
10459;DHT22;5277;48.722;8.736;2024-02-21T14:41:21;13.80;73.00
10459;DHT22;5277;48.722;8.736;2024-02-21T14:43:46;13.80;73.60
10459;DHT22;5277;48.722;8.736;2024-02-21T14:46:12;13.70;78.60
10459;DHT22;5277;48.722;8.736;2024-02-21T14:48:38;13.60;78.20
10459;DHT22;5277;48.722;8.736;2024-02-21T14:51:04;13.60;76.00
10459;DHT22;5277;48.722;8.736;2024-02-21T14:53:30;13.60;74.70
10459;DHT22;5277;48.722;8.736;2024-02-21T14:55:56;13.60;75.90
10459;DHT22;5277;48.722;8.736;2024-02-21T14:58:23;13.50;72.40
10459;DHT22;5277;48.722;8.736;2024-02-21T15:00:49;13.50;73.40
10459;DHT22;5277;48.722;8.736;2024-02-21T15:03:18;13.50;72.80
10459;DHT22;5277;48.722;8.736;2024-02-21T15:05:47;13.50;74.80
10459;DHT22;5277;48.722;8.736;2024-02-21T15:08:13;13.40;72.80
10459;DHT22;5277;48.722;8.736;2024-02-21T15:10:45;13.30;73.50
10459;DHT22;5277;48.722;8.736;2024-02-21T15:13:11;13.30;69.60
10459;DHT22;5277;48.722;8.736;2024-02-21T15:15:36;13.30;71.00
10459;DHT22;5277;48.722;8.736;2024-02-21T15:18:02;13.20;75.60
10459;DHT22;5277;48.722;8.736;2024-02-21T15:20:28;13.20;77.30
10459;DHT22;5277;48.722;8.736;2024-02-21T15:22:54;13.10;74.80
10459;DHT22;5277;48.722;8.736;2024-02-21T15:25:20;13.10;78.80
10459;DHT22;5277;48.722;8.736;2024-02-21T15:27:46;13.00;78.30
10459;DHT22;5277;48.722;8.736;2024-02-21T15:30:12;12.90;78.30
10459;DHT22;5277;48.722;8.736;2024-02-21T15:32:41;12.80;77.20
10459;DHT22;5277;48.722;8.736;2024-02-21T15:35:09;12.80;77.70
10459;DHT22;5277;48.722;8.736;2024-02-21T15:37:36;12.70;78.30
10459;DHT22;5277;48.722;8.736;2024-02-21T15:40:01;12.70;80.80
10459;DHT22;5277;48.722;8.736;2024-02-21T15:42:29;12.50;79.80
10459;DHT22;5277;48.722;8.736;2024-02-21T15:44:54;12.40;85.30
10459;DHT22;5277;48.722;8.736;2024-02-21T15:47:20;12.40;81.50
10459;DHT22;5277;48.722;8.736;2024-02-21T15:49:49;12.30;80.30
10459;DHT22;5277;48.722;8.736;2024-02-21T15:52:15;12.20;83.80
10459;DHT22;5277;48.722;8.736;2024-02-21T15:54:41;12.20;82.60
10459;DHT22;5277;48.722;8.736;2024-02-21T15:57:07;12.20;80.00
10459;DHT22;5277;48.722;8.736;2024-02-21T15:59:33;12.20;82.40
10459;DHT22;5277;48.722;8.736;2024-02-21T16:01:58;12.10;85.30
10459;DHT22;5277;48.722;8.736;2024-02-21T16:04:26;12.00;81.60